createdAt,value
2019-02-22T00:00:49.098Z,99.99
2019-02-22T00:01:49.079Z,99.99
2019-02-22T00:02:49.075Z,99.99
2019-02-22T00:03:49.061Z,99.99
2019-02-22T00:04:49.053Z,99.99
2019-02-22T00:05:49.059Z,99.99
2019-02-22T00:06:49.019Z,99.99
2019-02-22T00:07:49.030Z,99.99
2019-02-22T00:08:49.009Z,99.99
2019-02-22T00:09:49.848Z,99.99
2019-02-22T00:10:48.981Z,99.99
2019-02-22T00:11:48.975Z,99.99
2019-02-22T00:12:48.955Z,99.99
2019-02-22T00:13:48.951Z,99.93
2019-02-22T00:14:48.941Z,99.89
2019-02-22T00:15:48.931Z,99.99
2019-02-22T00:16:48.925Z,99.93
2019-02-22T00:17:48.911Z,99.99
2019-02-22T00:18:48.915Z,99.99
2019-02-22T00:19:48.893Z,99.83
2019-02-22T00:20:48.884Z,99.52
2019-02-22T00:21:48.869Z,99.93
2019-02-22T00:22:48.849Z,99.99
2019-02-22T00:23:48.844Z,99.83
2019-02-22T00:24:48.829Z,99.52
2019-02-22T00:25:48.828Z,99.63
2019-02-22T00:26:48.813Z,99.68
2019-02-22T00:27:48.808Z,99.63
2019-02-22T00:28:48.787Z,99.99
2019-02-22T00:29:48.771Z,99.63
2019-02-22T00:30:48.770Z,99.63
2019-02-22T00:31:48.764Z,99.73
2019-02-22T00:32:48.767Z,99.83
2019-02-22T00:33:48.739Z,99.73
2019-02-22T00:34:48.725Z,99.93
2019-02-22T00:35:48.706Z,99.63
2019-02-22T00:36:48.728Z,99.63
2019-02-22T00:37:48.703Z,99.93
2019-02-22T00:38:48.708Z,99.73
2019-02-22T00:39:48.661Z,99.42
2019-02-22T00:40:48.649Z,99.83
2019-02-22T00:41:48.638Z,99.73
2019-02-22T00:42:50.333Z,99.99
2019-02-22T00:43:48.635Z,99.01
2019-02-22T00:44:48.627Z,98.91
2019-02-22T00:45:48.595Z,98.91
2019-02-22T00:46:48.593Z,99.01
2019-02-22T00:47:48.577Z,99.11
2019-02-22T00:48:48.572Z,99.01
2019-02-22T00:49:48.559Z,99.32
2019-02-22T00:50:48.541Z,99.83
2019-02-22T00:51:48.529Z,99.83
2019-02-22T00:52:48.525Z,99.99
2019-02-22T00:53:48.517Z,99.83
2019-02-22T00:54:48.521Z,99.73
2019-02-22T00:55:48.493Z,99.73
2019-02-22T00:56:48.483Z,99.73
2019-02-22T00:57:48.472Z,99.52
2019-02-22T00:58:48.460Z,99.99
2019-02-22T00:59:48.449Z,99.93
2019-02-22T01:00:48.451Z,99.99
2019-02-22T01:01:48.437Z,99.99
2019-02-22T01:02:48.413Z,99.99
2019-02-22T01:03:48.400Z,99.99
2019-02-22T01:04:48.397Z,99.98
2019-02-22T01:05:48.379Z,99.99
2019-02-22T01:06:48.375Z,99.99
2019-02-22T01:07:48.356Z,99.99
2019-02-22T01:08:48.347Z,99.99
2019-02-22T01:09:48.338Z,99.99
2019-02-22T01:10:48.326Z,99.99
2019-02-22T01:11:48.323Z,99.99
2019-02-22T01:12:48.329Z,99.99
2019-02-22T01:13:48.291Z,99.99
2019-02-22T01:14:48.282Z,99.99
2019-02-22T01:15:48.317Z,99.99
2019-02-22T01:16:48.261Z,99.99
2019-02-22T01:17:48.266Z,99.99
2019-02-22T01:18:48.239Z,99.99
2019-02-22T01:19:48.225Z,99.99
2019-02-22T01:20:54.427Z,99.99
2019-02-22T01:21:49.218Z,99.99
2019-02-22T01:22:48.197Z,99.99
2019-02-22T01:23:48.197Z,99.99
2019-02-22T01:24:48.169Z,99.99
2019-02-22T01:25:48.162Z,99.99
2019-02-22T01:26:48.150Z,99.99
2019-02-22T01:27:48.137Z,99.99
2019-02-22T01:28:48.138Z,99.99
2019-02-22T01:29:48.112Z,99.99
2019-02-22T01:30:48.107Z,99.99
2019-02-22T01:31:48.089Z,99.99
2019-02-22T01:32:48.087Z,99.99
2019-02-22T01:33:48.075Z,99.99
2019-02-22T01:34:48.079Z,99.99
2019-02-22T01:35:48.071Z,99.99
2019-02-22T01:36:48.045Z,99.99
2019-02-22T01:37:48.025Z,99.99
2019-02-22T01:38:48.018Z,99.99
2019-02-22T01:39:48.014Z,99.99
2019-02-22T01:40:48.025Z,99.99
2019-02-22T01:41:47.985Z,99.99
2019-02-22T01:42:48.016Z,99.99
2019-02-22T01:43:47.980Z,99.99
2019-02-22T01:44:47.977Z,99.99
2019-02-22T01:45:47.960Z,99.99
2019-02-22T01:46:47.950Z,99.99
2019-02-22T01:47:47.929Z,99.99
2019-02-22T01:48:47.920Z,99.99
2019-02-22T01:49:47.904Z,99.99
2019-02-22T01:50:47.887Z,99.99
2019-02-22T01:51:47.885Z,99.99
2019-02-22T01:52:47.886Z,99.99
2019-02-22T01:53:47.871Z,99.99
2019-02-22T01:54:47.847Z,99.99
2019-02-22T01:55:47.868Z,99.99
2019-02-22T01:56:47.827Z,99.99
2019-02-22T01:57:47.821Z,99.99
2019-02-22T01:58:49.006Z,99.99
2019-02-22T01:59:47.793Z,99.99
2019-02-22T02:00:47.781Z,99.99
2019-02-22T02:01:47.777Z,99.99
2019-02-22T02:02:47.768Z,99.99
2019-02-22T02:03:47.783Z,99.99
2019-02-22T02:04:47.741Z,99.99
2019-02-22T02:05:47.732Z,99.99
2019-02-22T02:06:47.737Z,99.99
2019-02-22T02:07:47.711Z,99.82
2019-02-22T02:08:47.697Z,99.93
2019-02-22T02:09:47.734Z,99.93
2019-02-22T02:10:54.184Z,99.93
2019-02-22T02:11:48.664Z,99.99
2019-02-22T02:12:47.662Z,99.93
2019-02-22T02:13:47.647Z,99.88
2019-02-22T02:14:47.651Z,99.72
2019-02-22T02:15:47.624Z,99.72
2019-02-22T02:16:47.635Z,99.72
2019-02-22T02:17:47.606Z,99.82
2019-02-22T02:18:47.595Z,99.72
2019-02-22T02:19:47.584Z,99.62
2019-02-22T02:20:47.589Z,99.51
2019-02-22T02:21:47.559Z,99.51
2019-02-22T02:22:47.549Z,99.99
2019-02-22T02:23:47.533Z,99.51
2019-02-22T02:24:47.527Z,99.72
2019-02-22T02:25:47.519Z,99.99
2019-02-22T02:26:47.504Z,99.62
2019-02-22T02:27:47.505Z,99.93
2019-02-22T02:28:47.481Z,99.82
2019-02-22T02:29:47.493Z,99.82
2019-02-22T02:30:47.461Z,99.99
2019-02-22T02:31:47.453Z,99.82
2019-02-22T02:32:47.439Z,99.99
2019-02-22T02:33:47.431Z,99.72
2019-02-22T02:34:47.487Z,99.97
2019-02-22T02:35:47.417Z,99.72
2019-02-22T02:36:47.401Z,99.72
2019-02-22T02:37:47.417Z,99.93
2019-02-22T02:38:47.379Z,99.72
2019-02-22T02:39:47.392Z,99.93
2019-02-22T02:40:47.373Z,99.41
2019-02-22T02:41:47.354Z,99.82
2019-02-22T02:42:47.361Z,99.62
2019-02-22T02:43:47.324Z,99.72
2019-02-22T02:44:47.320Z,99.82
2019-02-22T02:45:47.305Z,99.99
2019-02-22T02:46:47.303Z,99.72
2019-02-22T02:47:47.284Z,99.93
2019-02-22T02:48:47.279Z,99.93
2019-02-22T02:49:47.260Z,99.72
2019-02-22T02:50:47.250Z,99.99
2019-02-22T02:51:47.250Z,99.93
2019-02-22T02:52:47.296Z,99.99
2019-02-22T02:53:47.270Z,99.82
2019-02-22T02:54:47.216Z,99.93
2019-02-22T02:55:47.209Z,99.15
2019-02-22T02:56:47.185Z,99.15
2019-02-22T02:57:47.176Z,99.41
2019-02-22T02:58:47.166Z,99.93
2019-02-22T02:59:47.168Z,99.56
2019-02-22T03:00:47.149Z,99.77
2019-02-22T03:01:47.130Z,99.35
2019-02-22T03:02:47.119Z,99.31
2019-02-22T03:03:47.119Z,99.31
2019-02-22T03:04:47.111Z,99.41
2019-02-22T03:05:47.098Z,99.31
2019-02-22T03:06:47.076Z,99.31
2019-02-22T03:07:47.069Z,99.15
2019-02-22T03:08:47.058Z,99.25
2019-02-22T03:09:47.052Z,99.15
2019-02-22T03:10:47.041Z,99.46
2019-02-22T03:11:47.030Z,99.25
2019-02-22T03:12:47.017Z,99.46
2019-02-22T03:13:47.003Z,99.15
2019-02-22T03:14:46.997Z,99.25
2019-02-22T03:15:47.007Z,99.56
2019-02-22T03:16:47.061Z,99.46
2019-02-22T03:17:46.969Z,99.46
2019-02-22T03:18:46.951Z,99.56
2019-02-22T03:19:46.949Z,99.56
2019-02-22T03:20:46.934Z,98.84
2019-02-22T03:21:46.933Z,98.84
2019-02-22T03:22:46.912Z,99.05
2019-02-22T03:23:46.909Z,98.12
2019-02-22T03:24:46.895Z,98.84
2019-02-22T03:25:46.880Z,97.81
2019-02-22T03:26:46.869Z,98.33
2019-02-22T03:27:46.871Z,98.53
2019-02-22T03:28:46.868Z,98.22
2019-02-22T03:29:46.866Z,98.63
2019-02-22T03:30:46.842Z,98.33
2019-02-22T03:31:46.813Z,98.12
2019-02-22T03:32:46.819Z,98.74
2019-02-22T03:33:46.813Z,98.53
2019-02-22T03:34:46.791Z,98.43
2019-02-22T03:35:46.771Z,98.63
2019-02-22T03:36:46.759Z,98.22
2019-02-22T03:37:46.749Z,98.22
2019-02-22T03:38:46.767Z,98.94
2019-02-22T03:39:46.734Z,98.22
2019-02-22T03:40:46.727Z,98.43
2019-02-22T03:41:46.715Z,98.74
2019-02-22T03:42:46.691Z,98.33
2019-02-22T03:43:46.687Z,98.47
2019-02-22T03:44:46.679Z,98.43
2019-02-22T03:45:46.674Z,98.22
2019-02-22T03:46:46.674Z,98.79
2019-02-22T03:47:46.678Z,98.53
2019-02-22T03:48:46.640Z,98.58
2019-02-22T03:49:46.638Z,98.79
2019-02-22T03:50:46.634Z,98.53
2019-02-22T03:51:46.611Z,98.79
2019-02-22T03:52:46.590Z,98.79
2019-02-22T03:53:46.585Z,98.79
2019-02-22T03:54:46.571Z,97.86
2019-02-22T03:55:46.557Z,97.65
2019-02-22T03:56:46.556Z,97.96
2019-02-22T03:57:46.547Z,97.86
2019-02-22T03:58:46.528Z,98.06
2019-02-22T03:59:46.515Z,98.16
2019-02-22T04:00:46.512Z,97.86
2019-02-22T04:01:46.517Z,97.90
2019-02-22T04:02:46.493Z,97.14
2019-02-22T04:03:46.474Z,96.93
2019-02-22T04:04:46.469Z,96.67
2019-02-22T04:05:46.451Z,96.05
2019-02-22T04:06:46.441Z,95.64
2019-02-22T04:07:46.432Z,95.74
2019-02-22T04:08:46.422Z,95.64
2019-02-22T04:09:46.414Z,95.74
2019-02-22T04:10:46.404Z,95.58
2019-02-22T04:11:46.654Z,95.37
2019-02-22T04:12:46.400Z,94.45
2019-02-22T04:13:46.368Z,94.34
2019-02-22T04:14:46.377Z,94.03
2019-02-22T04:15:46.341Z,94.03
2019-02-22T04:16:46.331Z,93.93
2019-02-22T04:17:46.325Z,94.34
2019-02-22T04:18:46.315Z,93.25
2019-02-22T04:19:46.310Z,94.28
2019-02-22T04:20:46.297Z,94.34
2019-02-22T04:21:46.279Z,93.56
2019-02-22T04:22:46.273Z,94.08
2019-02-22T04:23:46.265Z,93.98
2019-02-22T04:24:46.256Z,94.18
2019-02-22T04:25:46.238Z,94.65
2019-02-22T04:26:46.224Z,94.70
2019-02-22T04:27:46.217Z,93.66
2019-02-22T04:28:46.214Z,93.87
2019-02-22T04:29:46.195Z,93.87
2019-02-22T04:30:46.187Z,93.50
2019-02-22T04:31:46.182Z,93.60
2019-02-22T04:32:46.163Z,93.50
2019-02-22T04:33:46.159Z,93.40
2019-02-22T04:34:46.148Z,93.60
2019-02-22T04:35:46.132Z,93.30
2019-02-22T04:36:46.124Z,92.68
2019-02-22T04:37:46.134Z,93.91
2019-02-22T04:38:46.113Z,93.40
2019-02-22T04:39:46.088Z,93.50
2019-02-22T04:40:46.083Z,93.75
2019-02-22T04:41:57.350Z,94.02
2019-02-22T04:42:47.054Z,94.53
2019-02-22T04:43:46.040Z,94.23
2019-02-22T04:44:46.045Z,94.53
2019-02-22T04:45:46.023Z,95.15
2019-02-22T04:46:46.019Z,94.53
2019-02-22T04:47:46.005Z,94.68
2019-02-22T04:48:45.994Z,94.78
2019-02-22T04:49:45.985Z,95.36
2019-02-22T04:50:45.975Z,94.84
2019-02-22T04:51:45.960Z,94.37
2019-02-22T04:52:45.943Z,93.85
2019-02-22T04:53:45.944Z,94.57
2019-02-22T04:54:45.925Z,94.42
2019-02-22T04:55:45.919Z,94.93
2019-02-22T04:56:45.914Z,94.72
2019-02-22T04:57:45.896Z,94.31
2019-02-22T04:58:45.890Z,94.31
2019-02-22T04:59:45.871Z,94.77
2019-02-22T05:00:45.856Z,94.15
2019-02-22T05:01:45.849Z,93.84
2019-02-22T05:02:45.833Z,94.81
2019-02-22T05:03:45.840Z,94.81
2019-02-22T05:04:45.819Z,94.92
2019-02-22T05:05:45.819Z,94.92
2019-02-22T05:06:45.799Z,94.92
2019-02-22T05:07:45.834Z,94.92
2019-02-22T05:08:45.774Z,94.71
2019-02-22T05:09:45.767Z,95.06
2019-02-22T05:10:45.757Z,95.89
2019-02-22T05:12:16.436Z,95.94
2019-02-22T05:13:16.415Z,95.94
2019-02-22T05:14:47.156Z,95.10
2019-02-22T05:15:47.128Z,95.10
2019-02-22T05:17:17.791Z,95.83
2019-02-22T05:18:17.783Z,95.21
2019-02-22T05:19:17.765Z,95.00
2019-02-22T05:20:17.761Z,95.04
2019-02-22T05:21:17.751Z,95.87
2019-02-22T05:22:17.729Z,95.98
2019-02-22T05:23:17.729Z,95.29
2019-02-22T05:24:17.712Z,95.29
2019-02-22T05:25:17.715Z,95.81
2019-02-22T05:26:17.685Z,95.50
2019-02-22T05:27:17.681Z,95.40
2019-02-22T05:28:17.663Z,95.03
2019-02-22T05:29:17.654Z,93.62
2019-02-22T05:30:17.652Z,94.10
2019-02-22T05:31:17.639Z,94.56
2019-02-22T05:32:17.636Z,95.07
2019-02-22T05:33:17.624Z,96.11
2019-02-22T05:34:17.602Z,96.01
2019-02-22T05:35:17.603Z,96.01
2019-02-22T05:36:17.584Z,95.28
2019-02-22T05:37:17.580Z,95.18
2019-02-22T05:38:17.567Z,95.07
2019-02-22T05:39:19.517Z,94.81
2019-02-22T05:40:17.537Z,95.32
2019-02-22T05:41:17.531Z,94.81
2019-02-22T05:42:22.902Z,94.81
2019-02-22T05:43:18.508Z,95.06
2019-02-22T05:44:17.498Z,95.57
2019-02-22T05:45:17.480Z,95.78
2019-02-22T05:46:17.548Z,95.57
2019-02-22T05:47:17.470Z,95.99
2019-02-22T05:48:17.453Z,95.83
2019-02-22T05:49:17.448Z,96.41
2019-02-22T05:50:17.434Z,96.24
2019-02-22T05:51:17.423Z,96.76
2019-02-22T05:52:17.420Z,97.49
2019-02-22T05:53:17.404Z,96.86
2019-02-22T05:54:17.395Z,96.55
2019-02-22T05:55:17.380Z,96.55
2019-02-22T05:56:17.378Z,96.86
2019-02-22T05:57:17.358Z,97.59
2019-02-22T05:58:17.358Z,97.59
2019-02-22T05:59:17.342Z,98.16
2019-02-22T06:00:17.337Z,97.74
2019-02-22T06:01:17.313Z,97.80
2019-02-22T06:02:17.308Z,98.11
2019-02-22T06:03:17.287Z,97.80
2019-02-22T06:04:17.283Z,97.49
2019-02-22T06:05:17.278Z,97.28
2019-02-22T06:06:17.297Z,97.17
2019-02-22T06:07:17.256Z,98.00
2019-02-22T06:08:17.255Z,98.00
2019-02-22T06:09:17.233Z,97.90
2019-02-22T06:10:17.219Z,97.74
2019-02-22T06:11:17.215Z,98.16
2019-02-22T06:12:18.551Z,97.85
2019-02-22T06:13:17.185Z,98.05
2019-02-22T06:14:17.171Z,98.00
2019-02-22T06:15:17.161Z,98.32
2019-02-22T06:16:17.170Z,97.59
2019-02-22T06:17:17.145Z,96.70
2019-02-22T06:18:48.112Z,96.81
2019-02-22T06:19:48.072Z,96.45
2019-02-22T06:21:18.535Z,96.29
2019-02-22T06:22:29.157Z,96.45
2019-02-22T06:23:50.189Z,95.25
2019-02-22T06:24:50.194Z,95.25
2019-02-22T06:26:20.929Z,95.36
2019-02-22T06:27:20.920Z,95.25
2019-02-22T06:28:51.705Z,95.87
2019-02-22T06:29:51.691Z,95.15
2019-02-22T06:31:35.075Z,94.11
2019-02-22T06:32:35.042Z,94.21
2019-02-22T06:34:05.724Z,93.70
2019-02-22T06:35:05.698Z,94.27
2019-02-22T06:36:36.377Z,94.06
2019-02-22T06:37:36.355Z,94.06
2019-02-22T06:39:07.146Z,94.32
2019-02-22T06:40:07.076Z,93.96
2019-02-22T06:41:07.061Z,94.37
2019-02-22T06:42:07.047Z,93.96
2019-02-22T06:43:07.033Z,93.13
2019-02-22T06:44:07.021Z,93.23
2019-02-22T06:45:07.013Z,93.54
2019-02-22T06:46:07.006Z,93.07
2019-02-22T06:47:06.996Z,94.21
2019-02-22T06:48:06.990Z,94.32
2019-02-22T06:49:06.982Z,94.32
2019-02-22T06:50:06.968Z,94.11
2019-02-22T06:51:06.958Z,94.11
2019-02-22T06:52:06.944Z,94.11
2019-02-22T06:53:06.936Z,94.11
2019-02-22T06:54:06.918Z,94.01
2019-02-22T06:55:06.919Z,93.18
2019-02-22T06:56:06.906Z,93.28
2019-02-22T06:57:06.898Z,92.86
2019-02-22T06:58:06.873Z,92.86
2019-02-22T06:59:06.869Z,92.45
2019-02-22T07:00:06.859Z,91.83
2019-02-22T07:01:06.847Z,92.18
2019-02-22T07:02:06.831Z,91.76
2019-02-22T07:03:06.829Z,91.97
2019-02-22T07:04:06.813Z,91.35
2019-02-22T07:05:06.822Z,91.45
2019-02-22T07:06:06.799Z,90.72
2019-02-22T07:07:06.781Z,90.77
2019-02-22T07:08:06.775Z,90.87
2019-02-22T07:09:06.772Z,91.39
2019-02-22T07:10:37.481Z,91.39
2019-02-22T07:11:37.958Z,90.31
2019-02-22T07:13:08.155Z,90.66
2019-02-22T07:14:08.119Z,91.28
2019-02-22T07:15:38.825Z,90.35
2019-02-22T07:16:38.797Z,89.94
2019-02-22T07:18:09.548Z,90.14
2019-02-22T07:19:09.531Z,90.25
2019-02-22T07:20:40.259Z,89.94
2019-02-22T07:21:51.861Z,89.77
2019-02-22T07:23:11.900Z,89.98
2019-02-22T07:24:11.883Z,89.98
2019-02-22T07:25:11.874Z,89.46
2019-02-22T07:26:11.905Z,89.83
2019-02-22T07:27:11.853Z,89.77
2019-02-22T07:28:11.851Z,90.50
2019-02-22T07:29:11.823Z,89.83
2019-02-22T07:30:11.827Z,90.25
2019-02-22T07:31:11.834Z,89.94
2019-02-22T07:32:11.803Z,90.97
2019-02-22T07:33:11.814Z,89.62
2019-02-22T07:34:11.785Z,88.94
2019-02-22T07:35:14.016Z,89.15
2019-02-22T07:36:11.754Z,88.94
2019-02-22T07:37:11.739Z,87.59
2019-02-22T07:38:11.747Z,87.27
2019-02-22T07:39:11.726Z,85.86
2019-02-22T07:40:11.725Z,87.48
2019-02-22T07:41:11.706Z,87.01
2019-02-22T07:42:11.691Z,83.58
2019-02-22T07:43:11.683Z,81.49
2019-02-22T07:44:11.669Z,80.66
2019-02-22T07:45:11.671Z,79.62
2019-02-22T07:46:11.665Z,79.72
2019-02-22T07:47:11.646Z,79.87
2019-02-22T07:48:11.637Z,80.70
2019-02-22T07:49:11.615Z,81.53
2019-02-22T07:50:11.611Z,81.01
2019-02-22T07:51:11.593Z,81.53
2019-02-22T07:52:11.579Z,81.43
2019-02-22T07:53:11.575Z,80.04
2019-02-22T07:54:11.627Z,72.78
2019-02-22T07:55:11.564Z,63.17
2019-02-22T07:56:11.588Z,59.91
2019-02-22T07:57:11.537Z,56.18
2019-02-22T07:58:11.523Z,51.26
2019-02-22T07:59:11.519Z,52.59
2019-02-22T08:00:11.498Z,58.48
2019-02-22T08:01:11.487Z,63.76
2019-02-22T08:02:11.477Z,67.93
2019-02-22T08:03:11.471Z,69.45
2019-02-22T08:04:11.459Z,70.34
2019-02-22T08:05:11.451Z,71.80
2019-02-22T08:06:11.449Z,72.94
2019-02-22T08:07:11.428Z,72.66
2019-02-22T08:08:11.414Z,73.32
2019-02-22T08:09:11.419Z,74.39
2019-02-22T08:10:11.387Z,75.78
2019-02-22T08:11:11.386Z,77.03
2019-02-22T08:12:11.376Z,78.14
2019-02-22T08:13:19.092Z,76.61
2019-02-22T08:14:12.343Z,77.86
2019-02-22T08:15:11.354Z,78.49
2019-02-22T08:16:11.323Z,77.55
2019-02-22T08:17:11.312Z,77.44
2019-02-22T08:18:11.304Z,78.07
2019-02-22T08:19:11.471Z,78.49
2019-02-22T08:20:11.336Z,78.49
2019-02-22T08:21:11.299Z,78.59
2019-02-22T08:22:11.283Z,79.11
2019-02-22T08:23:11.253Z,78.97
2019-02-22T08:24:11.238Z,79.11
2019-02-22T08:25:11.233Z,79.63
2019-02-22T08:26:11.218Z,80.81
2019-02-22T08:27:11.211Z,81.12
2019-02-22T08:28:11.200Z,81.12
2019-02-22T08:29:11.200Z,81.54
2019-02-22T08:30:11.182Z,81.37
2019-02-22T08:31:11.167Z,81.37
2019-02-22T08:32:11.180Z,82.37
2019-02-22T08:33:11.153Z,82.06
2019-02-22T08:34:11.139Z,81.33
2019-02-22T08:35:11.126Z,81.12
2019-02-22T08:36:11.117Z,81.96
2019-02-22T08:37:11.095Z,81.09
2019-02-22T08:38:11.089Z,81.40
2019-02-22T08:39:11.077Z,82.03
2019-02-22T08:40:11.071Z,81.60
2019-02-22T08:41:11.071Z,81.29
2019-02-22T08:42:11.045Z,80.88
2019-02-22T08:43:11.035Z,80.88
2019-02-22T08:44:11.029Z,81.40
2019-02-22T08:45:11.046Z,81.29
2019-02-22T08:46:11.017Z,81.50
2019-02-22T08:47:10.999Z,80.67
2019-02-22T08:48:10.988Z,80.88
2019-02-22T08:49:10.971Z,80.67
2019-02-22T08:50:10.959Z,80.88
2019-02-22T08:51:10.949Z,80.57
2019-02-22T08:52:10.943Z,80.77
2019-02-22T08:53:10.923Z,80.15
2019-02-22T08:54:10.923Z,79.83
2019-02-22T08:55:10.908Z,80.88
2019-02-22T08:56:10.889Z,79.11
2019-02-22T08:57:10.885Z,79.11
2019-02-22T08:58:10.906Z,79.52
2019-02-22T08:59:10.862Z,79.63
2019-02-22T09:00:10.853Z,79.94
2019-02-22T09:01:10.845Z,79.73
2019-02-22T09:02:10.829Z,79.42
2019-02-22T09:03:10.823Z,78.97
2019-02-22T09:04:10.811Z,78.55
2019-02-22T09:05:10.807Z,78.24
2019-02-22T09:06:10.787Z,77.37
2019-02-22T09:07:10.789Z,77.40
2019-02-22T09:08:10.801Z,76.99
2019-02-22T09:09:10.755Z,77.61
2019-02-22T09:10:10.750Z,78.34
2019-02-22T09:11:10.747Z,77.72
2019-02-22T09:12:10.719Z,78.14
2019-02-22T09:13:10.717Z,78.93
2019-02-22T09:14:10.703Z,77.51
2019-02-22T09:15:10.694Z,78.24
2019-02-22T09:16:10.689Z,78.41
2019-02-22T09:17:10.693Z,78.52
2019-02-22T09:18:10.655Z,77.37
2019-02-22T09:19:10.650Z,76.33
2019-02-22T09:20:10.653Z,77.06
2019-02-22T09:21:10.635Z,77.27
2019-02-22T09:22:21.836Z,76.54
2019-02-22T09:23:11.603Z,77.34
2019-02-22T09:24:10.599Z,75.19
2019-02-22T09:25:10.593Z,74.32
2019-02-22T09:26:10.587Z,72.63
2019-02-22T09:27:10.585Z,69.48
2019-02-22T09:28:10.571Z,67.86
2019-02-22T09:29:10.545Z,65.39
2019-02-22T09:30:10.532Z,62.34
2019-02-22T09:31:10.547Z,60.49
2019-02-22T09:32:10.507Z,57.18
2019-02-22T09:33:10.501Z,56.93
2019-02-22T09:34:10.486Z,53.09
2019-02-22T09:35:10.471Z,53.45
2019-02-22T09:36:10.464Z,53.17
2019-02-22T09:37:10.467Z,51.79
2019-02-22T09:38:10.447Z,48.80
2019-02-22T09:39:10.448Z,46.52
2019-02-22T09:40:10.425Z,45.39
2019-02-22T09:41:10.415Z,47.85
2019-02-22T09:42:10.405Z,43.59
2019-02-22T09:43:10.420Z,44.71
2019-02-22T09:44:10.387Z,44.86
2019-02-22T09:45:10.384Z,42.26
2019-02-22T09:46:10.356Z,41.83
2019-02-22T09:47:10.344Z,40.44
2019-02-22T09:48:10.334Z,40.54
2019-02-22T09:49:10.326Z,41.80
2019-02-22T09:50:10.329Z,43.24
2019-02-22T09:51:10.338Z,41.95
2019-02-22T09:52:10.290Z,43.91
2019-02-22T09:53:10.285Z,44.62
2019-02-22T09:54:10.290Z,44.53
2019-02-22T09:55:10.274Z,44.02
2019-02-22T09:56:10.309Z,43.46
2019-02-22T09:57:10.263Z,44.49
2019-02-22T09:58:10.231Z,44.51
2019-02-22T09:59:10.218Z,46.12
2019-02-22T10:00:10.206Z,45.89
2019-02-22T10:01:10.200Z,44.06
2019-02-22T10:02:10.258Z,44.57
2019-02-22T10:03:10.187Z,46.51
2019-02-22T10:04:10.159Z,45.71
2019-02-22T10:05:10.153Z,46.53
2019-02-22T10:06:10.157Z,46.02
2019-02-22T10:07:10.139Z,46.37
2019-02-22T10:08:10.121Z,45.25
2019-02-22T10:09:10.119Z,45.61
2019-02-22T10:10:10.098Z,46.28
2019-02-22T10:11:10.090Z,44.72
2019-02-22T10:12:10.073Z,43.54
2019-02-22T10:13:10.067Z,43.81
2019-02-22T10:14:10.061Z,44.43
2019-02-22T10:15:10.047Z,45.29
2019-02-22T10:16:10.033Z,42.89
2019-02-22T10:17:10.024Z,42.66
2019-02-22T10:18:10.019Z,43.18
2019-02-22T10:19:10.005Z,41.84
2019-02-22T10:20:10.003Z,40.67
2019-02-22T10:21:09.992Z,39.56
2019-02-22T10:22:09.969Z,40.08
2019-02-22T10:23:09.971Z,39.34
2019-02-22T10:24:09.948Z,39.40
2019-02-22T10:25:09.955Z,38.77
2019-02-22T10:26:09.925Z,39.06
2019-02-22T10:27:12.042Z,38.34
2019-02-22T10:28:17.246Z,38.77
2019-02-22T10:29:10.900Z,36.29
2019-02-22T10:30:09.913Z,36.80
2019-02-22T10:31:09.871Z,35.49
2019-02-22T10:32:09.855Z,37.06
2019-02-22T10:33:09.852Z,37.06
2019-02-22T10:34:09.859Z,36.12
2019-02-22T10:35:09.836Z,35.42
2019-02-22T10:36:09.832Z,37.92
2019-02-22T10:37:09.804Z,36.89
2019-02-22T10:38:09.795Z,37.11
2019-02-22T10:39:09.793Z,36.87
2019-02-22T10:40:09.777Z,36.34
2019-02-22T10:41:09.770Z,36.47
2019-02-22T10:42:09.769Z,36.65
2019-02-22T10:43:09.759Z,37.88
2019-02-22T10:44:17.393Z,37.07
2019-02-22T10:45:10.726Z,37.07
2019-02-22T10:46:09.720Z,36.79
2019-02-22T10:47:09.705Z,37.06
2019-02-22T10:48:09.689Z,36.55
2019-02-22T10:49:09.683Z,36.34
2019-02-22T10:50:09.670Z,36.37
2019-02-22T10:51:09.668Z,37.77
2019-02-22T10:52:09.651Z,36.44
2019-02-22T10:53:09.671Z,38.29
2019-02-22T10:54:09.641Z,36.36
2019-02-22T10:55:09.618Z,37.55
2019-02-22T10:56:09.608Z,38.54
2019-02-22T10:57:09.593Z,38.67
2019-02-22T10:58:09.597Z,39.52
2019-02-22T10:59:09.580Z,39.28
2019-02-22T11:00:09.557Z,38.45
2019-02-22T11:01:09.551Z,39.07
2019-02-22T11:02:09.540Z,39.65
2019-02-22T11:03:09.527Z,39.50
2019-02-22T11:04:09.534Z,38.53
2019-02-22T11:05:09.504Z,38.62
2019-02-22T11:06:09.510Z,36.56
2019-02-22T11:07:09.479Z,36.44
2019-02-22T11:08:09.475Z,35.86
2019-02-22T11:09:09.468Z,36.15
2019-02-22T11:10:09.465Z,36.27
2019-02-22T11:11:09.445Z,37.38
2019-02-22T11:12:09.433Z,36.82
2019-02-22T11:13:09.415Z,39.11
2019-02-22T11:14:09.405Z,38.57
2019-02-22T11:15:09.401Z,37.85
2019-02-22T11:16:09.383Z,38.04
2019-02-22T11:17:09.371Z,39.54
2019-02-22T11:18:09.366Z,38.39
2019-02-22T11:19:09.353Z,39.02
2019-02-22T11:20:09.351Z,40.11
2019-02-22T11:21:09.341Z,40.48
2019-02-22T11:22:09.327Z,39.97
2019-02-22T11:23:09.303Z,39.64
2019-02-22T11:24:09.292Z,40.14
2019-02-22T11:25:09.285Z,39.40
2019-02-22T11:26:09.271Z,40.20
2019-02-22T11:27:09.255Z,39.36
2019-02-22T11:28:09.251Z,39.36
2019-02-22T11:29:09.253Z,38.56
2019-02-22T11:30:09.234Z,38.45
2019-02-22T11:31:09.218Z,38.28
2019-02-22T11:32:09.217Z,39.31
2019-02-22T11:33:09.199Z,40.55
2019-02-22T11:34:09.181Z,39.40
2019-02-22T11:35:09.181Z,39.61
2019-02-22T11:36:09.175Z,40.31
2019-02-22T11:37:09.154Z,39.79
2019-02-22T11:38:09.156Z,40.29
2019-02-22T11:39:09.157Z,40.56
2019-02-22T11:40:09.124Z,40.44
2019-02-22T11:41:09.143Z,37.93
2019-02-22T11:42:09.113Z,40.34
2019-02-22T11:43:09.084Z,41.58
2019-02-22T11:44:09.081Z,40.96
2019-02-22T11:45:09.073Z,40.26
2019-02-22T11:46:09.057Z,41.29
2019-02-22T11:47:09.057Z,40.47
2019-02-22T11:48:09.636Z,39.98
2019-02-22T11:49:09.035Z,39.98
2019-02-22T11:50:09.010Z,40.69
2019-02-22T11:51:09.006Z,41.00
2019-02-22T11:52:09.029Z,41.31
2019-02-22T11:53:08.983Z,40.69
2019-02-22T11:54:09.001Z,40.28
2019-02-22T11:55:08.963Z,40.86
2019-02-22T11:56:08.945Z,40.20
2019-02-22T11:57:08.940Z,39.59
2019-02-22T11:58:08.923Z,38.45
2019-02-22T11:59:08.915Z,39.19
2019-02-22T12:00:08.908Z,39.38
2019-02-22T12:01:08.930Z,39.77
2019-02-22T12:02:08.885Z,39.77
2019-02-22T12:03:21.411Z,38.64
2019-02-22T12:04:09.856Z,38.65
2019-02-22T12:05:08.867Z,40.10
2019-02-22T12:06:08.841Z,39.28
2019-02-22T12:07:08.855Z,39.70
2019-02-22T12:08:08.817Z,40.14
2019-02-22T12:09:08.809Z,39.91
2019-02-22T12:10:08.803Z,39.21
2019-02-22T12:11:08.796Z,40.43
2019-02-22T12:12:08.776Z,40.01
2019-02-22T12:13:08.769Z,38.98
2019-02-22T12:14:08.755Z,40.33
2019-02-22T12:15:08.741Z,39.61
2019-02-22T12:16:08.737Z,40.63
2019-02-22T12:17:08.737Z,40.34
2019-02-22T12:18:08.728Z,39.62
2019-02-22T12:19:08.699Z,39.42
2019-02-22T12:20:08.690Z,38.83
2019-02-22T12:21:08.697Z,39.04
2019-02-22T12:22:08.677Z,39.54
2019-02-22T12:23:08.677Z,39.14
2019-02-22T12:24:08.647Z,39.95
2019-02-22T12:25:08.635Z,39.62
2019-02-22T12:26:08.625Z,39.72
2019-02-22T12:27:08.612Z,40.67
2019-02-22T12:28:08.618Z,39.31
2019-02-22T12:29:08.615Z,40.01
2019-02-22T12:30:08.579Z,39.87
2019-02-22T12:31:08.571Z,39.26
2019-02-22T12:32:08.558Z,39.45
2019-02-22T12:33:08.553Z,37.49
2019-02-22T12:34:08.537Z,39.57
2019-02-22T12:35:08.529Z,39.40
2019-02-22T12:36:09.601Z,40.96
2019-02-22T12:37:08.523Z,40.84
2019-02-22T12:38:08.505Z,40.41
2019-02-22T12:39:08.485Z,39.69
2019-02-22T12:40:08.493Z,40.10
2019-02-22T12:41:08.470Z,40.52
2019-02-22T12:42:08.456Z,40.52
2019-02-22T12:43:08.445Z,40.86
2019-02-22T12:44:08.449Z,40.78
2019-02-22T12:45:08.427Z,40.92
2019-02-22T12:46:08.417Z,42.24
2019-02-22T12:47:08.403Z,42.14
2019-02-22T12:48:08.393Z,40.90
2019-02-22T12:49:08.377Z,41.08
2019-02-22T12:50:08.373Z,40.88
2019-02-22T12:51:08.380Z,41.19
2019-02-22T12:52:08.362Z,41.06
2019-02-22T12:53:08.335Z,37.97
2019-02-22T12:54:08.333Z,36.32
2019-02-22T12:55:08.320Z,36.63
2019-02-22T12:56:08.312Z,36.92
2019-02-22T12:57:08.297Z,37.23
2019-02-22T12:58:08.288Z,37.35
2019-02-22T12:59:08.326Z,37.74
2019-02-22T13:00:08.254Z,38.45
2019-02-22T13:01:08.247Z,37.71
2019-02-22T13:02:08.245Z,37.18